Home   Weather   USA   Fremont   Past weeks
Flag for USA

Past Weather in Fremont, California, USA — March 2021

Currently: 75 °F. Sunny. (Weather station: Moffett Field, USA). See more current weather

March 2021 Weather in Fremont — Graph

°F

High & Low Weather Summary for March 2021

 TemperatureHumidityPressure
High79 °F (Mar 31, 2:15 pm)94% (Mar 18, 9:35 pm)30.34 "Hg (Mar 18, 9:35 pm)
Low37 °F (Mar 16, 5:15 am)13% (Mar 1, 1:30 pm)29.75 "Hg (Mar 3, 3:55 am)
Average53 °F62%30.10 "Hg
* Reported Mar 1 12:10 am — Mar 31 11:55 pm, Fremont. Weather by CustomWeather, © 2021

Note: Actual official high and low records may vary slightly from our data, if they occured in-between our weather recording intervals... More about our weather records

Fremont Weather History for March 1, 2021

Scroll right to see more
 ConditionsComfort  
Time TempWeatherWind HumidityBarometerVisibility
12:10 am
Mon, Mar 1
48 °FClear.No wind58%30.18 "Hg10 mi
12:30 am48 °FClear.No wind58%30.18 "Hg10 mi
12:50 am46 °FClear.No wind62%30.17 "Hg10 mi
1:10 am46 °FClear.6 mph62%30.17 "Hg10 mi
1:30 am45 °FClear.7 mph57%30.17 "Hg10 mi
1:50 am46 °FClear.No wind53%30.17 "Hg10 mi
2:10 am45 °FClear.No wind61%30.16 "Hg10 mi
2:30 am45 °FClear.No wind61%30.15 "Hg10 mi
2:50 am45 °FClear.No wind61%30.15 "Hg10 mi
3:10 am45 °FClear.No wind57%30.15 "Hg10 mi
3:35 am46 °FClear.No wind53%30.15 "Hg10 mi
3:55 am46 °FClear.3 mph50%30.15 "Hg10 mi
4:15 am46 °FClear.5 mph50%30.14 "Hg10 mi
4:35 am45 °FClear.No wind53%30.14 "Hg10 mi
4:55 am46 °FClear.No wind50%30.14 "Hg10 mi
5:15 am45 °FClear.No wind53%30.14 "Hg10 mi
5:35 am45 °FClear.No wind49%30.14 "Hg10 mi
5:55 am45 °FClear.No wind53%30.14 "Hg10 mi
6:15 am45 °FClear.No wind53%30.14 "Hg10 mi
6:35 am43 °FClear.No wind57%30.14 "Hg10 mi
6:55 am45 °FHaze.No wind53%30.14 "Hg5 mi
7:15 am45 °FSunny.No wind57%30.14 "Hg9 mi
7:30 am46 °FSunny.3 mph53%30.15 "Hg10 mi
7:50 am48 °FSunny.5 mph50%30.16 "Hg10 mi
8:10 am48 °FSunny.No wind50%30.16 "Hg10 mi
8:30 am50 °FSunny.No wind47%30.16 "Hg6 mi
8:50 am52 °FSunny.3 mph47%30.16 "Hg10 mi
9:10 am54 °FSunny.6 mph47%30.16 "Hg10 mi
9:30 am55 °FSunny.5 mph47%30.16 "Hg10 mi
9:50 am55 °FSunny.6 mph47%30.16 "Hg10 mi
10:10 am57 °FSunny.8 mph48%30.16 "Hg10 mi
10:30 am57 °FSunny.8 mph44%30.16 "Hg10 mi
10:50 am59 °FSunny.7 mph39%30.15 "Hg10 mi
11:10 am59 °FSunny.6 mph36%30.14 "Hg10 mi
11:30 am61 °FSunny.3 mph31%30.14 "Hg9 mi
11:50 am63 °FSunny.6 mph30%30.13 "Hg10 mi
12:10 pm64 °FSunny.6 mph28%30.12 "Hg10 mi
12:30 pm70 °FSunny.10 mph16%30.10 "Hg10 mi
12:50 pm70 °FSunny.12 mph15%30.09 "Hg9 mi
1:10 pm70 °FSunny.8 mph15%30.09 "Hg10 mi
1:30 pm70 °FSunny.10 mph13%30.07 "Hg10 mi
1:50 pm70 °FSunny.12 mph13%30.07 "Hg10 mi
2:10 pm70 °FSunny.8 mph13%30.07 "Hg10 mi
2:30 pm70 °FSunny.9 mph13%30.06 "Hg10 mi
2:50 pm70 °FSunny.8 mph13%30.06 "Hg10 mi
3:10 pm68 °FSunny.8 mph13%30.05 "Hg10 mi
3:30 pm68 °FSunny.9 mph13%30.05 "Hg10 mi
3:50 pm68 °FSunny.7 mph14%30.04 "Hg10 mi
4:10 pm68 °FSunny.9 mph14%30.03 "Hg10 mi
4:30 pm68 °FSunny.6 mph16%30.03 "Hg10 mi
4:50 pm68 °FSunny.7 mph14%30.02 "Hg10 mi
5:10 pm68 °FSunny.12 mph16%30.01 "Hg10 mi
5:30 pm66 °FSunny.10 mph17%30.01 "Hg10 mi
6:10 pm64 °FClear.5 mph16%30.02 "Hg10 mi
6:30 pm63 °FClear.No wind16%30.03 "Hg10 mi
6:50 pm59 °FClear.No wind20%30.03 "Hg10 mi
7:10 pm59 °FClear.10 mph23%30.03 "Hg10 mi
7:30 pm59 °FClear.8 mph39%30.04 "Hg10 mi
7:50 pm57 °FClear.6 mph44%30.03 "Hg10 mi
8:10 pm57 °FClear.No wind36%30.03 "Hg10 mi
8:30 pm57 °FClear.No wind33%30.04 "Hg10 mi
8:50 pm55 °FClear.No wind36%30.04 "Hg10 mi
9:10 pm55 °FClear.No wind36%30.04 "Hg10 mi
9:30 pm55 °FClear.5 mph41%30.05 "Hg10 mi
9:50 pm54 °FClear.5 mph51%30.04 "Hg10 mi
10:10 pm54 °FClear.No wind54%30.04 "Hg10 mi
10:30 pm52 °FClear.3 mph54%30.04 "Hg10 mi
10:50 pm52 °FClear.6 mph58%30.03 "Hg10 mi
11:10 pm52 °FClear.6 mph58%30.03 "Hg10 mi
11:30 pm52 °FClear.6 mph58%30.03 "Hg10 mi
11:50 pm52 °FClear.6 mph54%30.03 "Hg10 mi
Weather by CustomWeather, © 2021

See weather overview